createdAt,value
2018-09-26T00:02:08.012Z,6.77
2018-09-26T00:07:11.611Z,6.80
2018-09-26T00:12:15.236Z,6.90
2018-09-26T00:17:18.814Z,7.01
2018-09-26T00:22:22.317Z,7.08
2018-09-26T00:27:25.845Z,7.00
2018-09-26T00:32:29.394Z,7.09
2018-09-26T00:37:32.919Z,7.17
2018-09-26T00:42:36.799Z,7.21
2018-09-26T00:47:40.386Z,7.24
2018-09-26T00:52:44.282Z,7.27
2018-09-26T00:57:47.862Z,7.20
2018-09-26T01:02:51.363Z,7.09
2018-09-26T01:07:54.933Z,7.18
2018-09-26T01:12:58.645Z,7.14
2018-09-26T01:18:02.200Z,7.17
2018-09-26T01:23:05.772Z,7.20
2018-09-26T01:28:09.277Z,7.12
2018-09-26T01:33:12.785Z,7.08
2018-09-26T01:38:17.177Z,7.03
2018-09-26T01:43:20.733Z,7.07
2018-09-26T01:48:24.303Z,7.11
2018-09-26T01:53:27.804Z,7.08
2018-09-26T01:58:31.448Z,7.01
2018-09-26T02:03:34.875Z,7.01
2018-09-26T02:08:38.837Z,7.06
2018-09-26T02:13:42.358Z,7.06
2018-09-26T02:18:46.181Z,6.98
2018-09-26T02:23:49.825Z,6.78
2018-09-26T02:28:53.443Z,6.74
2018-09-26T02:33:57.028Z,6.68
2018-09-26T02:39:00.563Z,6.22
2018-09-26T02:44:04.150Z,6.08
2018-09-26T02:49:07.952Z,6.02
2018-09-26T02:54:11.572Z,5.86
2018-09-26T02:59:15.083Z,5.91
2018-09-26T03:04:18.626Z,5.70
2018-09-26T03:09:22.218Z,5.64
2018-09-26T03:14:25.884Z,5.66
2018-09-26T03:19:29.419Z,5.55
2018-09-26T03:24:33.068Z,5.71
2018-09-26T03:29:36.903Z,5.59
2018-09-26T03:34:40.404Z,5.36
2018-09-26T03:39:43.932Z,5.50
2018-09-26T03:44:47.498Z,5.43
2018-09-26T03:49:51.002Z,5.46
2018-09-26T03:54:54.549Z,5.59
2018-09-26T03:59:58.161Z,5.42
2018-09-26T04:05:01.732Z,5.47
2018-09-26T04:10:05.251Z,5.43
2018-09-26T04:15:08.865Z,5.42
2018-09-26T04:20:12.509Z,5.38
2018-09-26T04:25:16.103Z,5.39
2018-09-26T04:30:22.595Z,5.39
2018-09-26T04:35:26.163Z,5.46
2018-09-26T04:40:29.887Z,5.63
2018-09-26T04:45:33.408Z,5.54
2018-09-26T04:50:36.977Z,5.60
2018-09-26T04:55:40.470Z,5.69
2018-09-26T05:00:47.807Z,5.78
2018-09-26T05:05:51.477Z,5.93
2018-09-26T05:10:55.101Z,5.96
2018-09-26T05:15:58.629Z,5.79
2018-09-26T05:21:03.407Z,5.86
2018-09-26T05:26:07.168Z,5.94
2018-09-26T05:31:10.774Z,6.08
2018-09-26T05:36:14.355Z,6.13
2018-09-26T05:41:17.884Z,5.91
2018-09-26T05:46:21.547Z,5.87
2018-09-26T05:51:25.140Z,6.00
2018-09-26T05:56:28.748Z,6.01
2018-09-26T06:01:32.333Z,6.18
2018-09-26T06:06:35.975Z,6.50
2018-09-26T06:11:39.579Z,6.75
2018-09-26T06:16:43.133Z,6.70
2018-09-26T06:21:46.699Z,6.77
2018-09-26T06:26:50.207Z,7.09
2018-09-26T06:31:53.775Z,7.29
2018-09-26T06:36:57.400Z,7.30
2018-09-26T06:42:01.863Z,7.57
2018-09-26T06:47:05.567Z,7.94
2018-09-26T06:52:09.143Z,8.16
2018-09-26T06:57:14.424Z,8.63
2018-09-26T07:02:19.034Z,9.06
2018-09-26T07:07:26.337Z,9.48
2018-09-26T07:12:30.635Z,9.93
2018-09-26T07:17:35.640Z,10.45
2018-09-26T07:22:39.180Z,10.57
2018-09-26T07:27:42.696Z,10.95
2018-09-26T07:32:46.533Z,11.13
2018-09-26T07:37:50.104Z,11.33
2018-09-26T07:42:53.885Z,11.52
2018-09-26T07:47:57.521Z,11.71
2018-09-26T07:53:01.955Z,11.86
2018-09-26T07:58:05.614Z,11.71
2018-09-26T08:03:09.210Z,12.08
2018-09-26T08:08:12.900Z,12.24
2018-09-26T08:13:16.514Z,12.17
2018-09-26T08:18:20.207Z,12.22
2018-09-26T08:23:30.266Z,12.43
2018-09-26T08:28:38.551Z,12.73
2018-09-26T08:33:42.085Z,13.06
2018-09-26T08:38:45.760Z,13.28
2018-09-26T08:43:51.714Z,13.45
2018-09-26T08:48:59.092Z,13.35
2018-09-26T08:54:02.724Z,13.45
2018-09-26T08:59:06.663Z,13.58
2018-09-26T09:04:10.234Z,13.78
2018-09-26T09:09:13.864Z,14.05
2018-09-26T09:14:17.602Z,14.10
2018-09-26T09:19:21.052Z,14.13
2018-09-26T09:24:31.215Z,14.31
2018-09-26T09:29:34.817Z,14.26
2018-09-26T09:34:38.353Z,14.20
2018-09-26T09:39:41.955Z,14.33
2018-09-26T09:44:45.497Z,14.32
2018-09-26T09:49:49.047Z,14.37
2018-09-26T09:54:52.613Z,14.40
2018-09-26T09:59:56.206Z,14.56
2018-09-26T10:05:00.872Z,14.81
2018-09-26T10:10:04.425Z,15.00
2018-09-26T10:15:08.029Z,15.16
2018-09-26T10:20:11.600Z,14.94
2018-09-26T10:25:15.373Z,14.75
2018-09-26T10:30:28.414Z,14.75
2018-09-26T10:35:32.727Z,15.04
2018-09-26T10:40:36.331Z,15.29
2018-09-26T10:45:39.869Z,15.63
2018-09-26T10:50:43.506Z,15.65
2018-09-26T10:55:47.075Z,15.57
2018-09-26T11:00:50.566Z,15.69
2018-09-26T11:05:54.213Z,15.96
2018-09-26T11:10:57.749Z,15.70
2018-09-26T11:16:01.483Z,15.71
2018-09-26T11:21:05.167Z,15.87
2018-09-26T11:26:08.757Z,15.93
2018-09-26T11:31:12.471Z,16.04
2018-09-26T11:36:16.065Z,16.09
2018-09-26T11:41:22.523Z,16.09
2018-09-26T11:46:32.360Z,16.21
2018-09-26T11:51:41.248Z,16.41
2018-09-26T11:56:48.234Z,16.25
2018-09-26T12:01:51.938Z,16.48
2018-09-26T12:06:55.551Z,16.59
2018-09-26T12:11:59.452Z,16.51
2018-09-26T12:17:03.021Z,16.52
2018-09-26T12:22:06.889Z,16.68
2018-09-26T12:27:10.397Z,16.97
2018-09-26T12:32:14.248Z,17.07
2018-09-26T12:37:17.776Z,17.13
2018-09-26T12:42:21.347Z,17.26
2018-09-26T12:47:24.883Z,17.21
2018-09-26T12:52:28.433Z,17.05
2018-09-26T12:57:32.065Z,17.23
2018-09-26T13:02:35.815Z,17.39
2018-09-26T13:07:39.428Z,17.34
2018-09-26T13:12:42.999Z,17.27
2018-09-26T13:17:46.622Z,17.52
2018-09-26T13:22:50.321Z,17.83
2018-09-26T13:27:59.921Z,17.70
2018-09-26T13:33:09.247Z,17.66
2018-09-26T13:38:26.079Z,17.96
2018-09-26T13:43:29.903Z,18.17
2018-09-26T13:48:35.057Z,18.25
2018-09-26T13:53:40.863Z,18.14
2018-09-26T13:58:50.687Z,18.19
2018-09-26T14:03:54.216Z,18.21
2018-09-26T14:08:57.857Z,18.32
2018-09-26T14:14:01.433Z,18.28
2018-09-26T14:19:05.090Z,18.43
2018-09-26T14:24:09.036Z,18.42
2018-09-26T14:29:12.937Z,18.44
2018-09-26T14:34:16.839Z,18.54
2018-09-26T14:39:20.947Z,18.50
2018-09-26T14:44:24.852Z,18.62
2018-09-26T14:49:28.750Z,18.57
2018-09-26T14:54:32.578Z,18.53
2018-09-26T14:59:36.385Z,18.72
2018-09-26T15:04:40.263Z,18.71
2018-09-26T15:09:44.141Z,18.67
2018-09-26T15:14:48.022Z,18.68
2018-09-26T15:19:57.163Z,18.66
2018-09-26T15:25:00.965Z,18.71
2018-09-26T15:30:05.038Z,18.90
2018-09-26T15:35:08.968Z,18.71
2018-09-26T15:40:12.922Z,18.63
2018-09-26T15:45:16.701Z,18.71
2018-09-26T15:50:20.564Z,18.78
2018-09-26T15:55:24.405Z,18.66
2018-09-26T16:00:28.757Z,18.53
2018-09-26T16:05:32.456Z,18.55
2018-09-26T16:10:36.083Z,18.47
2018-09-26T16:15:39.708Z,18.35
2018-09-26T16:20:43.433Z,18.30
2018-09-26T16:25:47.098Z,18.17
2018-09-26T16:30:50.964Z,18.05
2018-09-26T16:35:54.528Z,17.90
2018-09-26T16:40:58.356Z,17.72
2018-09-26T16:46:02.248Z,17.63
2018-09-26T16:51:06.353Z,17.45
2018-09-26T16:56:09.934Z,17.34
2018-09-26T17:01:13.454Z,17.15
2018-09-26T17:06:17.022Z,17.02
2018-09-26T17:11:20.711Z,16.90
2018-09-26T17:16:24.602Z,16.79
2018-09-26T17:21:28.140Z,16.66
2018-09-26T17:26:31.860Z,16.57
2018-09-26T17:31:35.896Z,16.40
2018-09-26T17:36:39.531Z,16.15
2018-09-26T17:41:43.469Z,15.99
2018-09-26T17:46:47.223Z,15.79
2018-09-26T17:51:51.594Z,15.52
2018-09-26T17:56:57.341Z,15.47
2018-09-26T18:02:01.116Z,15.20
2018-09-26T18:07:04.695Z,14.92
2018-09-26T18:12:15.327Z,14.66
2018-09-26T18:17:18.958Z,14.38
2018-09-26T18:22:22.468Z,14.13
2018-09-26T18:27:26.098Z,13.97
2018-09-26T18:32:29.623Z,13.85
2018-09-26T18:37:33.220Z,13.69
2018-09-26T18:42:36.866Z,13.47
2018-09-26T18:47:40.513Z,13.42
2018-09-26T18:52:44.126Z,13.27
2018-09-26T18:57:47.875Z,13.23
2018-09-26T19:02:53.031Z,13.15
2018-09-26T19:07:58.067Z,12.93
2018-09-26T19:13:03.088Z,12.76
2018-09-26T19:18:09.483Z,12.76
2018-09-26T19:23:14.372Z,12.66
2018-09-26T19:28:19.848Z,12.64
2018-09-26T19:33:25.231Z,12.45
2018-09-26T19:38:30.746Z,12.35
2018-09-26T19:43:35.803Z,12.36
2018-09-26T19:48:41.367Z,12.34
2018-09-26T19:53:46.316Z,12.34
2018-09-26T19:58:52.212Z,12.28
2018-09-26T20:03:57.074Z,12.25
2018-09-26T20:09:02.636Z,12.20
2018-09-26T20:14:07.549Z,12.16
2018-09-26T20:19:11.451Z,12.12
2018-09-26T20:24:15.407Z,12.06
2018-09-26T20:29:19.050Z,12.05
2018-09-26T20:34:22.591Z,12.08
2018-09-26T20:39:26.129Z,11.98
2018-09-26T20:44:29.711Z,12.00
2018-09-26T20:49:33.517Z,11.93
2018-09-26T20:54:37.140Z,11.78
2018-09-26T20:59:40.630Z,11.74
2018-09-26T21:04:44.319Z,11.81
2018-09-26T21:09:47.892Z,11.82
2018-09-26T21:14:51.597Z,11.84
2018-09-26T21:19:55.225Z,11.92
2018-09-26T21:24:59.334Z,11.89
2018-09-26T21:30:03.679Z,11.88
2018-09-26T21:35:08.363Z,11.88
2018-09-26T21:40:12.001Z,11.80
2018-09-26T21:45:15.554Z,11.68
2018-09-26T21:50:19.379Z,11.63
2018-09-26T21:55:22.869Z,11.75
2018-09-26T22:00:29.190Z,11.82
2018-09-26T22:05:32.694Z,11.90
2018-09-26T22:10:36.299Z,11.98
2018-09-26T22:15:39.874Z,12.10
2018-09-26T22:20:45.280Z,12.28
2018-09-26T22:25:48.907Z,12.51
2018-09-26T22:30:52.552Z,12.73
2018-09-26T22:35:56.080Z,12.93
2018-09-26T22:40:59.703Z,13.12
2018-09-26T22:46:03.232Z,13.38
2018-09-26T22:51:06.832Z,13.62
2018-09-26T22:56:10.346Z,13.76
2018-09-26T23:01:13.988Z,13.76
2018-09-26T23:06:17.561Z,13.76
2018-09-26T23:11:21.197Z,13.80
2018-09-26T23:16:24.927Z,13.74
2018-09-26T23:21:28.479Z,13.90
2018-09-26T23:26:32.085Z,13.98
2018-09-26T23:31:35.600Z,13.95
2018-09-26T23:36:39.117Z,13.91
2018-09-26T23:41:42.718Z,13.90
2018-09-26T23:46:46.322Z,13.89
2018-09-26T23:51:49.916Z,13.86
2018-09-26T23:56:53.477Z,13.87
